createdAt,value
2018-06-27T00:00:29.440Z,15.50
2018-06-27T00:02:59.058Z,15.50
2018-06-27T00:05:28.636Z,15.50
2018-06-27T00:07:57.608Z,15.40
2018-06-27T00:10:26.844Z,15.40
2018-06-27T00:12:56.466Z,15.40
2018-06-27T00:15:25.731Z,15.40
2018-06-27T00:17:54.677Z,15.40
2018-06-27T00:20:24.328Z,15.40
2018-06-27T00:22:53.693Z,15.40
2018-06-27T00:25:22.526Z,15.30
2018-06-27T00:27:51.436Z,15.30
2018-06-27T00:30:20.218Z,15.30
2018-06-27T00:32:49.308Z,15.30
2018-06-27T00:35:18.396Z,15.20
2018-06-27T00:37:47.131Z,15.20
2018-06-27T00:40:16.402Z,15.20
2018-06-27T00:42:45.939Z,15.20
2018-06-27T00:45:15.041Z,15.20
2018-06-27T00:50:12.665Z,15.10
2018-06-27T00:52:41.753Z,15.10
2018-06-27T00:55:10.865Z,15.00
2018-06-27T00:57:40.024Z,15.00
2018-06-27T01:00:09.773Z,15.00
2018-06-27T01:02:39.103Z,15.00
2018-06-27T01:05:08.372Z,14.90
2018-06-27T01:07:37.319Z,15.00
2018-06-27T01:10:06.267Z,15.00
2018-06-27T01:12:35.798Z,15.10
2018-06-27T01:15:06.850Z,15.00
2018-06-27T01:17:37.585Z,15.10
2018-06-27T01:20:07.406Z,15.10
2018-06-27T01:22:36.653Z,15.10
2018-06-27T01:25:06.123Z,15.10
2018-06-27T01:27:35.275Z,15.10
2018-06-27T01:30:04.962Z,15.00
2018-06-27T01:32:34.044Z,15.00
2018-06-27T01:35:03.592Z,15.00
2018-06-27T01:37:33.059Z,15.00
2018-06-27T01:40:01.831Z,15.10
2018-06-27T01:42:30.919Z,15.00
2018-06-27T01:44:59.644Z,14.80
2018-06-27T01:47:28.377Z,14.70
2018-06-27T01:49:57.981Z,14.80
2018-06-27T01:52:26.729Z,14.70
2018-06-27T01:54:55.540Z,14.70
2018-06-27T01:57:24.285Z,14.80
2018-06-27T01:59:53.723Z,14.80
2018-06-27T02:02:22.538Z,14.90
2018-06-27T02:04:51.351Z,14.70
2018-06-27T02:07:20.167Z,14.60
2018-06-27T02:09:49.772Z,14.60
2018-06-27T02:12:18.911Z,14.60
2018-06-27T02:14:47.890Z,14.60
2018-06-27T02:17:16.943Z,14.60
2018-06-27T02:19:46.329Z,14.60
2018-06-27T02:22:15.668Z,14.60
2018-06-27T02:24:44.707Z,14.70
2018-06-27T02:27:14.131Z,14.60
2018-06-27T02:29:43.186Z,14.50
2018-06-27T02:32:12.619Z,14.60
2018-06-27T02:34:41.700Z,14.40
2018-06-27T02:37:10.534Z,14.30
2018-06-27T02:39:39.630Z,14.20
2018-06-27T02:42:09.063Z,14.20
2018-06-27T02:44:38.147Z,14.20
2018-06-27T02:47:06.925Z,14.30
2018-06-27T02:49:35.807Z,14.10
2018-06-27T02:52:04.913Z,14.10
2018-06-27T02:54:33.984Z,14.10
2018-06-27T02:57:02.757Z,14.10
2018-06-27T02:59:31.903Z,14.10
2018-06-27T03:02:00.753Z,14.10
2018-06-27T03:04:30.280Z,14.10
2018-06-27T03:06:59.759Z,14.10
2018-06-27T03:09:28.626Z,14.10
2018-06-27T03:11:57.816Z,14.10
2018-06-27T03:14:26.686Z,14.20
2018-06-27T03:16:56.453Z,14.40
2018-06-27T03:19:25.380Z,14.60
2018-06-27T03:21:54.704Z,14.70
2018-06-27T03:24:23.506Z,14.80
2018-06-27T03:26:52.828Z,14.90
2018-06-27T03:29:21.904Z,15.00
2018-06-27T03:31:51.212Z,15.20
2018-06-27T03:34:20.252Z,15.30
2018-06-27T03:36:49.354Z,15.40
2018-06-27T03:39:18.147Z,15.90
2018-06-27T03:41:46.909Z,16.40
2018-06-27T03:44:15.633Z,16.70
2018-06-27T03:46:44.447Z,16.70
2018-06-27T03:49:13.721Z,16.50
2018-06-27T03:51:42.508Z,16.50
2018-06-27T03:54:11.612Z,16.70
2018-06-27T03:56:40.370Z,16.70
2018-06-27T03:59:09.444Z,16.40
2018-06-27T04:01:38.551Z,16.40
2018-06-27T04:04:07.926Z,16.30
2018-06-27T04:06:37.160Z,16.90
2018-06-27T04:09:08.840Z,17.60
2018-06-27T04:11:38.668Z,17.90
2018-06-27T04:14:07.824Z,18.30
2018-06-27T04:16:37.432Z,18.10
2018-06-27T04:19:06.578Z,18.20
2018-06-27T04:21:35.839Z,18.50
2018-06-27T04:24:05.056Z,19.00
2018-06-27T04:26:33.907Z,18.70
2018-06-27T04:29:02.734Z,18.70
2018-06-27T04:31:32.324Z,18.20
2018-06-27T04:34:01.283Z,19.70
2018-06-27T04:36:30.444Z,21.80
2018-06-27T04:38:59.239Z,24.30
2018-06-27T04:41:28.770Z,24.20
2018-06-27T04:43:57.886Z,24.30
2018-06-27T04:46:26.785Z,24.40
2018-06-27T04:48:55.965Z,25.10
2018-06-27T04:51:25.276Z,25.40
2018-06-27T04:53:54.402Z,25.70
2018-06-27T04:56:23.280Z,26.40
2018-06-27T04:58:52.048Z,26.90
2018-06-27T05:01:21.799Z,26.80
2018-06-27T05:03:51.855Z,29.00
2018-06-27T05:06:21.535Z,26.30
2018-06-27T05:08:50.968Z,25.00
2018-06-27T05:11:20.775Z,28.50
2018-06-27T05:13:50.223Z,29.30
2018-06-27T05:16:19.861Z,26.50
2018-06-27T05:18:49.298Z,30.00
2018-06-27T05:21:19.386Z,32.20
2018-06-27T05:23:49.164Z,32.10
2018-06-27T05:26:18.691Z,29.40
2018-06-27T05:28:48.207Z,28.80
2018-06-27T05:31:18.007Z,29.40
2018-06-27T05:33:47.435Z,28.80
2018-06-27T05:36:17.513Z,30.60
2018-06-27T05:38:47.369Z,33.40
2018-06-27T05:41:16.927Z,33.60
2018-06-27T05:43:47.069Z,34.50
2018-06-27T05:46:16.621Z,35.00
2018-06-27T05:48:47.561Z,34.40
2018-06-27T05:51:17.449Z,33.60
2018-06-27T05:53:46.989Z,34.30
2018-06-27T05:56:16.971Z,35.00
2018-06-27T05:58:46.640Z,31.60
2018-06-27T06:01:16.328Z,35.50
2018-06-27T06:03:46.318Z,33.60
2018-06-27T06:06:16.014Z,34.50
2018-06-27T06:08:45.312Z,35.10
2018-06-27T06:11:15.369Z,35.70
2018-06-27T06:13:44.914Z,33.40
2018-06-27T06:16:14.293Z,36.00
2018-06-27T06:18:43.893Z,37.20
2018-06-27T06:21:13.600Z,38.60
2018-06-27T06:23:42.953Z,41.10
2018-06-27T06:26:12.629Z,39.30
2018-06-27T06:28:43.243Z,38.90
2018-06-27T06:31:12.952Z,37.90
2018-06-27T06:33:42.933Z,38.90
2018-06-27T06:36:12.275Z,39.70
2018-06-27T06:38:41.600Z,37.80
2018-06-27T06:41:11.602Z,37.70
2018-06-27T06:43:41.319Z,38.60
2018-06-27T06:46:10.701Z,34.70
2018-06-27T06:48:40.207Z,34.70
2018-06-27T06:51:09.563Z,37.80
2018-06-27T06:53:38.938Z,38.20
2018-06-27T06:56:08.649Z,36.70
2018-06-27T06:58:38.473Z,40.70
2018-06-27T07:01:08.210Z,38.90
2018-06-27T07:03:38.359Z,39.10
2018-06-27T07:06:07.973Z,40.80
2018-06-27T07:08:37.159Z,37.70
2018-06-27T07:11:06.637Z,34.90
2018-06-27T07:13:37.596Z,34.30
2018-06-27T07:16:07.095Z,34.90
2018-06-27T07:18:36.753Z,37.00
2018-06-27T07:21:06.227Z,37.50
2018-06-27T07:23:36.005Z,36.30
2018-06-27T07:26:05.945Z,33.80
2018-06-27T07:28:36.046Z,30.50
2018-06-27T07:31:05.945Z,31.40
2018-06-27T07:33:35.326Z,34.30
2018-06-27T07:36:05.232Z,31.60
2018-06-27T07:38:35.282Z,34.20
2018-06-27T07:41:04.604Z,36.50
2018-06-27T07:43:34.359Z,38.20
2018-06-27T07:46:04.005Z,37.70
2018-06-27T07:48:33.545Z,35.30
2018-06-27T07:51:03.089Z,33.00
2018-06-27T07:53:32.733Z,30.30
2018-06-27T07:56:02.051Z,33.00
2018-06-27T07:58:31.749Z,35.50
2018-06-27T08:01:01.095Z,32.60
2018-06-27T08:03:30.908Z,36.00
2018-06-27T08:06:00.234Z,34.00
2018-06-27T08:08:29.710Z,34.30
2018-06-27T08:10:59.346Z,35.50
2018-06-27T08:13:29.053Z,35.90
2018-06-27T08:15:58.368Z,33.40
2018-06-27T08:18:27.869Z,30.30
2018-06-27T08:20:56.996Z,30.20
2018-06-27T08:23:26.090Z,28.60
2018-06-27T08:25:55.630Z,26.50
2018-06-27T08:28:24.579Z,25.50
2018-06-27T08:30:53.759Z,25.40
2018-06-27T08:33:22.710Z,25.80
2018-06-27T08:35:51.946Z,24.70
2018-06-27T08:38:20.908Z,23.80
2018-06-27T08:40:49.746Z,24.60
2018-06-27T08:43:19.190Z,24.60
2018-06-27T08:45:48.281Z,25.10
2018-06-27T08:48:17.501Z,23.90
2018-06-27T08:50:46.733Z,24.00
2018-06-27T08:53:15.963Z,24.40
2018-06-27T08:55:44.740Z,24.50
2018-06-27T08:58:13.871Z,24.10
2018-06-27T09:00:42.956Z,22.90
2018-06-27T09:03:12.059Z,23.30
2018-06-27T09:05:40.810Z,23.00
2018-06-27T09:08:10.255Z,22.30
2018-06-27T09:10:39.062Z,22.20
2018-06-27T09:13:08.479Z,22.40
2018-06-27T09:15:37.379Z,23.30
2018-06-27T09:18:06.309Z,23.00
2018-06-27T09:20:35.104Z,23.10
2018-06-27T09:23:04.366Z,22.80
2018-06-27T09:25:33.490Z,22.50
2018-06-27T09:28:02.364Z,21.80
2018-06-27T09:30:31.164Z,21.90
2018-06-27T09:33:00.432Z,22.00
2018-06-27T09:35:29.481Z,23.10
2018-06-27T09:37:58.291Z,22.80
2018-06-27T09:40:27.807Z,23.20
2018-06-27T09:42:57.032Z,22.50
2018-06-27T09:45:26.845Z,23.00
2018-06-27T09:47:55.735Z,23.60
2018-06-27T09:50:25.046Z,24.30
2018-06-27T09:52:54.385Z,24.60
2018-06-27T09:55:23.502Z,22.90
2018-06-27T09:57:52.663Z,23.10
2018-06-27T10:00:27.007Z,22.90
2018-06-27T10:02:55.811Z,22.90
2018-06-27T10:05:24.622Z,23.00
2018-06-27T10:07:53.845Z,23.30
2018-06-27T10:10:22.952Z,22.50
2018-06-27T10:12:52.360Z,23.10
2018-06-27T10:15:21.759Z,23.70
2018-06-27T10:17:50.712Z,23.70
2018-06-27T10:20:19.805Z,23.10
2018-06-27T10:22:48.938Z,23.60
2018-06-27T10:25:17.702Z,23.60
2018-06-27T10:27:47.208Z,24.20
2018-06-27T10:30:16.336Z,23.50
2018-06-27T10:32:45.455Z,23.70
2018-06-27T10:35:14.546Z,23.50
2018-06-27T10:37:44.636Z,23.00
2018-06-27T10:40:13.747Z,23.10
2018-06-27T10:42:42.539Z,23.40
2018-06-27T10:45:11.404Z,23.20
2018-06-27T10:47:40.371Z,23.50
2018-06-27T10:50:10.270Z,22.80
2018-06-27T10:52:39.504Z,23.00
2018-06-27T10:55:14.366Z,23.50
2018-06-27T10:57:43.189Z,23.00
2018-06-27T11:00:12.396Z,22.50
2018-06-27T11:02:41.220Z,23.10
2018-06-27T11:05:10.444Z,22.60
2018-06-27T11:07:39.876Z,22.60
2018-06-27T11:10:09.253Z,23.20
2018-06-27T11:12:38.088Z,23.10
2018-06-27T11:15:08.022Z,22.60
2018-06-27T11:17:36.782Z,22.60
2018-06-27T11:20:05.864Z,22.80
2018-06-27T11:22:34.966Z,22.60
2018-06-27T11:25:03.786Z,22.80
2018-06-27T11:27:32.555Z,22.50
2018-06-27T11:30:01.341Z,22.10
2018-06-27T11:32:30.443Z,22.20
2018-06-27T11:34:59.549Z,22.40
2018-06-27T11:37:28.296Z,22.50
2018-06-27T11:39:57.081Z,22.60
2018-06-27T11:42:26.199Z,22.60
2018-06-27T11:44:55.777Z,22.90
2018-06-27T11:47:24.848Z,22.70
2018-06-27T11:49:54.074Z,23.00
2018-06-27T11:52:23.591Z,22.70
2018-06-27T11:54:58.244Z,23.10
2018-06-27T11:57:27.668Z,23.50
2018-06-27T11:59:56.429Z,23.50
2018-06-27T12:02:25.560Z,23.70
2018-06-27T12:04:54.392Z,23.50
2018-06-27T12:07:23.264Z,23.70
2018-06-27T12:09:52.069Z,23.30
2018-06-27T12:12:21.539Z,23.20
2018-06-27T12:14:50.593Z,23.20
2018-06-27T12:17:20.132Z,23.50
2018-06-27T12:19:49.199Z,23.60
2018-06-27T12:22:18.329Z,23.20
2018-06-27T12:24:47.785Z,23.20
2018-06-27T12:27:16.547Z,23.40
2018-06-27T12:29:45.311Z,23.20
2018-06-27T12:32:14.393Z,23.50
2018-06-27T12:34:43.521Z,23.60
2018-06-27T12:37:12.682Z,23.80
2018-06-27T12:39:41.763Z,23.60
2018-06-27T12:42:10.939Z,23.20
2018-06-27T12:44:40.082Z,23.40
2018-06-27T12:47:09.242Z,23.40
2018-06-27T12:49:38.387Z,23.70
2018-06-27T12:52:07.465Z,24.00
2018-06-27T12:54:36.568Z,24.10
2018-06-27T12:57:05.348Z,23.90
2018-06-27T12:59:34.485Z,24.00
2018-06-27T13:02:03.794Z,23.90
2018-06-27T13:04:33.455Z,23.90
2018-06-27T13:07:02.616Z,23.80
2018-06-27T13:09:31.665Z,23.70
2018-06-27T13:12:00.939Z,23.40
2018-06-27T13:14:30.309Z,23.40
2018-06-27T13:16:59.791Z,23.20
2018-06-27T13:19:29.078Z,23.20
2018-06-27T13:21:58.177Z,23.10
2018-06-27T13:24:27.395Z,23.00
2018-06-27T13:26:56.812Z,23.10
2018-06-27T13:29:26.058Z,23.00
2018-06-27T13:31:55.168Z,23.00
2018-06-27T13:36:53.109Z,23.20
2018-06-27T13:39:22.581Z,23.50
2018-06-27T13:41:51.378Z,23.90
2018-06-27T13:44:20.460Z,23.70
2018-06-27T13:46:49.252Z,24.10
2018-06-27T13:49:18.665Z,24.10
2018-06-27T13:51:47.454Z,24.10
2018-06-27T13:54:16.548Z,24.00
2018-06-27T13:56:46.041Z,23.70
2018-06-27T13:59:14.792Z,23.90
2018-06-27T14:01:43.694Z,23.90
2018-06-27T14:04:12.804Z,23.70
2018-06-27T14:06:42.208Z,24.00
2018-06-27T14:09:11.378Z,23.70
2018-06-27T14:11:40.761Z,23.60
2018-06-27T14:14:10.031Z,23.60
2018-06-27T14:16:39.577Z,23.60
2018-06-27T14:19:08.561Z,23.50
2018-06-27T14:21:37.387Z,23.70
2018-06-27T14:24:06.518Z,24.10
2018-06-27T14:26:35.986Z,24.20
2018-06-27T14:29:04.746Z,24.10
2018-06-27T14:31:34.381Z,24.00
2018-06-27T14:34:03.169Z,24.40
2018-06-27T14:36:32.314Z,23.70
2018-06-27T14:39:01.785Z,23.70
2018-06-27T14:41:31.220Z,23.80
2018-06-27T14:44:00.121Z,24.00
2018-06-27T14:46:28.744Z,23.80
2018-06-27T14:48:58.091Z,23.50
2018-06-27T14:51:27.560Z,23.60
2018-06-27T14:53:56.355Z,23.70
2018-06-27T14:56:25.738Z,23.60
2018-06-27T14:58:55.036Z,23.40
2018-06-27T15:01:24.340Z,23.50
2018-06-27T15:03:53.110Z,23.30
2018-06-27T15:06:22.055Z,23.30
2018-06-27T15:08:51.661Z,23.30
2018-06-27T15:11:20.925Z,23.20
2018-06-27T15:13:50.321Z,23.30
2018-06-27T15:16:19.981Z,23.30
2018-06-27T15:18:49.163Z,23.30
2018-06-27T15:21:18.069Z,23.40
2018-06-27T15:23:47.131Z,23.50
2018-06-27T15:26:16.561Z,23.70
2018-06-27T15:28:46.020Z,23.60
2018-06-27T15:31:15.011Z,23.60
2018-06-27T15:33:43.781Z,23.40
2018-06-27T15:36:12.895Z,23.50
2018-06-27T15:38:42.044Z,23.60
2018-06-27T15:41:10.861Z,23.70
2018-06-27T15:43:39.635Z,23.70
2018-06-27T15:46:08.887Z,23.80
2018-06-27T15:48:38.037Z,23.60
2018-06-27T15:51:07.466Z,23.80
2018-06-27T15:53:36.933Z,23.60
2018-06-27T15:56:06.964Z,23.50
2018-06-27T15:58:36.074Z,23.40
2018-06-27T16:01:05.348Z,23.30
2018-06-27T16:03:34.522Z,23.50
2018-06-27T16:06:03.884Z,23.50
2018-06-27T16:08:33.526Z,23.50
2018-06-27T16:11:02.592Z,23.40
2018-06-27T16:13:32.328Z,23.40
2018-06-27T16:16:01.144Z,23.40
2018-06-27T16:18:30.402Z,23.50
2018-06-27T16:20:59.845Z,23.60
2018-06-27T16:23:29.253Z,23.80
2018-06-27T16:25:58.781Z,23.80
2018-06-27T16:28:27.988Z,23.70
2018-06-27T16:30:57.190Z,23.80
2018-06-27T16:33:26.332Z,23.90
2018-06-27T16:35:55.074Z,23.70
2018-06-27T16:38:24.209Z,23.90
2018-06-27T16:40:53.528Z,23.90
2018-06-27T16:43:23.048Z,24.00
2018-06-27T16:45:52.085Z,23.70
2018-06-27T16:48:20.866Z,23.70
2018-06-27T16:50:49.713Z,23.70
2018-06-27T16:53:19.526Z,23.40
2018-06-27T16:55:48.295Z,23.60
2018-06-27T16:58:17.432Z,23.70
2018-06-27T17:00:46.560Z,23.70
2018-06-27T17:03:15.963Z,23.60
2018-06-27T17:05:45.151Z,23.50
2018-06-27T17:08:14.374Z,23.60
2018-06-27T17:10:43.202Z,23.50
2018-06-27T17:13:12.609Z,23.50
2018-06-27T17:15:42.275Z,23.30
2018-06-27T17:18:11.344Z,23.30
2018-06-27T17:20:40.340Z,23.30
2018-06-27T17:23:09.573Z,23.20
2018-06-27T17:25:38.447Z,23.20
2018-06-27T17:28:07.584Z,23.30
2018-06-27T17:30:36.944Z,23.20
2018-06-27T17:33:06.070Z,23.30
2018-06-27T17:35:35.148Z,23.30
2018-06-27T17:38:04.337Z,23.20
2018-06-27T17:40:33.630Z,23.20
2018-06-27T17:43:02.759Z,23.10
2018-06-27T17:45:31.564Z,23.10
2018-06-27T17:48:00.352Z,23.10
2018-06-27T17:50:29.136Z,23.10
2018-06-27T17:52:58.564Z,23.00
2018-06-27T17:55:27.666Z,23.00
2018-06-27T17:57:56.763Z,22.90
2018-06-27T18:00:26.987Z,22.90
2018-06-27T18:02:55.740Z,22.90
2018-06-27T18:05:25.241Z,22.90
2018-06-27T18:07:54.375Z,22.90
2018-06-27T18:10:23.188Z,22.90
2018-06-27T18:12:52.981Z,22.90
2018-06-27T18:15:22.514Z,22.90
2018-06-27T18:17:51.652Z,22.90
2018-06-27T18:20:21.287Z,22.90
2018-06-27T18:22:50.585Z,22.90
2018-06-27T18:25:19.683Z,22.90
2018-06-27T18:27:49.103Z,22.90
2018-06-27T18:30:18.463Z,22.80
2018-06-27T18:32:47.760Z,22.80
2018-06-27T18:35:16.650Z,22.70
2018-06-27T18:37:46.332Z,22.70
2018-06-27T18:40:15.647Z,22.70
2018-06-27T18:42:44.574Z,22.60
2018-06-27T18:45:13.672Z,22.60
2018-06-27T18:47:42.651Z,22.50
2018-06-27T18:50:11.868Z,22.50
2018-06-27T18:52:40.774Z,22.40
2018-06-27T18:55:09.732Z,22.40
2018-06-27T18:57:38.623Z,22.30
2018-06-27T19:00:09.141Z,22.20
2018-06-27T19:02:38.004Z,22.20
2018-06-27T19:05:06.848Z,22.20
2018-06-27T19:07:35.721Z,22.10
2018-06-27T19:10:04.723Z,22.10
2018-06-27T19:12:33.689Z,22.10
2018-06-27T19:15:02.713Z,22.00
2018-06-27T19:17:32.091Z,22.00
2018-06-27T19:20:01.085Z,21.90
2018-06-27T19:22:30.217Z,21.90
2018-06-27T19:24:59.401Z,21.80
2018-06-27T19:27:28.552Z,21.70
2018-06-27T19:29:57.903Z,21.70
2018-06-27T19:32:27.402Z,21.60
2018-06-27T19:34:56.276Z,21.60
2018-06-27T19:37:25.187Z,21.50
2018-06-27T19:39:54.206Z,21.50
2018-06-27T19:42:23.157Z,21.40
2018-06-27T19:44:52.091Z,21.30
2018-06-27T19:47:21.329Z,21.30
2018-06-27T19:49:50.206Z,21.30
2018-06-27T19:52:19.134Z,21.20
2018-06-27T19:54:48.447Z,21.10
2018-06-27T19:57:17.578Z,21.10
2018-06-27T19:59:46.372Z,21.10
2018-06-27T20:02:15.473Z,21.00
2018-06-27T20:04:44.331Z,21.00
2018-06-27T20:07:13.248Z,20.90
2018-06-27T20:09:42.857Z,20.90
2018-06-27T20:12:11.882Z,20.80
2018-06-27T20:14:42.448Z,20.80
2018-06-27T20:17:11.555Z,20.70
2018-06-27T20:19:40.542Z,20.70
2018-06-27T20:22:13.595Z,20.70
2018-06-27T20:24:42.663Z,20.60
2018-06-27T20:27:12.028Z,20.60
2018-06-27T20:29:41.876Z,20.50
2018-06-27T20:34:39.676Z,20.50
2018-06-27T20:37:09.196Z,20.40
2018-06-27T20:39:39.294Z,20.30
2018-06-27T20:42:08.707Z,20.30
2018-06-27T20:44:39.056Z,20.30
2018-06-27T20:47:08.668Z,20.30
2018-06-27T20:49:37.777Z,20.20
2018-06-27T20:52:06.619Z,20.20
2018-06-27T20:54:35.753Z,20.20
2018-06-27T20:57:05.536Z,20.10
2018-06-27T20:59:34.688Z,20.10
2018-06-27T21:02:03.491Z,20.00
2018-06-27T21:04:33.006Z,20.00
2018-06-27T21:07:02.113Z,20.00
2018-06-27T21:09:31.037Z,20.00
2018-06-27T21:11:59.825Z,19.90
2018-06-27T21:14:28.997Z,19.90
2018-06-27T21:16:58.123Z,19.90
2018-06-27T21:19:26.970Z,19.80
2018-06-27T21:21:57.054Z,19.80
2018-06-27T21:24:26.323Z,19.80
2018-06-27T21:26:55.175Z,19.70
2018-06-27T21:29:24.516Z,19.70
2018-06-27T21:31:54.594Z,19.70
2018-06-27T21:34:23.470Z,19.60
2018-06-27T21:36:52.568Z,19.60
2018-06-27T21:39:21.793Z,19.50
2018-06-27T21:41:51.110Z,19.50
2018-06-27T21:44:20.575Z,19.50
2018-06-27T21:46:49.855Z,19.40
2018-06-27T21:49:22.011Z,19.40
2018-06-27T21:51:51.339Z,19.40
2018-06-27T21:54:20.170Z,19.40
2018-06-27T21:56:49.566Z,19.40
2018-06-27T21:59:18.541Z,19.30
2018-06-27T22:01:47.366Z,19.30
2018-06-27T22:04:16.828Z,19.30
2018-06-27T22:06:45.933Z,19.30
2018-06-27T22:09:15.172Z,19.20
2018-06-27T22:11:44.404Z,19.10
2018-06-27T22:14:13.483Z,19.10
2018-06-27T22:16:42.628Z,19.20
2018-06-27T22:19:11.901Z,19.10
2018-06-27T22:21:40.651Z,19.10
2018-06-27T22:24:10.294Z,19.10
2018-06-27T22:26:39.439Z,19.10
2018-06-27T22:29:08.617Z,19.10
2018-06-27T22:31:37.834Z,19.10
2018-06-27T22:34:06.622Z,19.00
2018-06-27T22:36:35.782Z,18.90
2018-06-27T22:39:07.499Z,19.00
2018-06-27T22:41:37.267Z,18.90
2018-06-27T22:44:06.708Z,19.00
2018-06-27T22:46:36.224Z,19.00
2018-06-27T22:49:05.632Z,19.00
2018-06-27T22:51:34.789Z,18.90
2018-06-27T22:54:03.744Z,18.90
2018-06-27T22:56:32.927Z,18.80
2018-06-27T22:59:01.976Z,18.80
2018-06-27T23:01:31.242Z,18.80
2018-06-27T23:04:00.411Z,18.80
2018-06-27T23:06:29.607Z,18.80
2018-06-27T23:08:58.369Z,18.70
2018-06-27T23:11:27.138Z,18.70
2018-06-27T23:13:55.956Z,18.60
2018-06-27T23:16:24.698Z,18.60
2018-06-27T23:18:53.514Z,18.60
2018-06-27T23:21:22.663Z,18.60
2018-06-27T23:23:51.746Z,18.50
2018-06-27T23:26:20.822Z,18.50
2018-06-27T23:28:50.496Z,18.60
2018-06-27T23:31:19.578Z,18.40
2018-06-27T23:33:48.663Z,18.40
2018-06-27T23:36:17.793Z,18.30
2018-06-27T23:38:46.905Z,18.40
2018-06-27T23:41:16.060Z,18.40
2018-06-27T23:43:44.881Z,18.50
2018-06-27T23:46:13.782Z,18.40
2018-06-27T23:48:42.873Z,18.20
2018-06-27T23:51:11.779Z,18.20
2018-06-27T23:53:40.791Z,18.10
2018-06-27T23:56:10.113Z,18.10
2018-06-27T23:58:39.044Z,18.10
